sensor_id;sensor_type;location;lat;lon;timestamp;temperature;humidity
66035;HTU21D;52805;51.074;5.842;2022-08-19T00:00:21;22.24;71.19
66035;HTU21D;52805;51.074;5.842;2022-08-19T00:02:47;22.23;71.12
66035;HTU21D;52805;51.074;5.842;2022-08-19T00:05:14;22.23;70.97
66035;HTU21D;52805;51.074;5.842;2022-08-19T00:07:42;22.21;71.03
66035;HTU21D;52805;51.074;5.842;2022-08-19T00:10:11;22.19;71.14
66035;HTU21D;52805;51.074;5.842;2022-08-19T00:12:37;22.18;71.18
66035;HTU21D;52805;51.074;5.842;2022-08-19T00:15:10;22.14;71.37
66035;HTU21D;52805;51.074;5.842;2022-08-19T00:17:41;22.10;71.63
66035;HTU21D;52805;51.074;5.842;2022-08-19T00:20:08;22.08;71.77
66035;HTU21D;52805;51.074;5.842;2022-08-19T00:22:37;22.07;71.89
66035;HTU21D;52805;51.074;5.842;2022-08-19T00:25:04;22.04;72.00
66035;HTU21D;52805;51.074;5.842;2022-08-19T00:27:30;21.99;72.09
66035;HTU21D;52805;51.074;5.842;2022-08-19T00:29:55;21.97;72.20
66035;HTU21D;52805;51.074;5.842;2022-08-19T00:32:22;21.98;72.24
66035;HTU21D;52805;51.074;5.842;2022-08-19T00:34:47;21.96;72.28
66035;HTU21D;52805;51.074;5.842;2022-08-19T00:37:13;21.94;72.37
66035;HTU21D;52805;51.074;5.842;2022-08-19T00:39:39;21.91;72.46
66035;HTU21D;52805;51.074;5.842;2022-08-19T00:42:04;21.84;72.64
66035;HTU21D;52805;51.074;5.842;2022-08-19T00:44:31;21.80;72.75
66035;HTU21D;52805;51.074;5.842;2022-08-19T00:46:58;21.76;72.78
66035;HTU21D;52805;51.074;5.842;2022-08-19T00:49:41;21.70;72.96
66035;HTU21D;52805;51.074;5.842;2022-08-19T00:52:15;21.66;72.96
66035;HTU21D;52805;51.074;5.842;2022-08-19T00:54:43;21.61;73.00
66035;HTU21D;52805;51.074;5.842;2022-08-19T00:57:14;21.58;72.98
66035;HTU21D;52805;51.074;5.842;2022-08-19T00:59:43;21.52;73.04
66035;HTU21D;52805;51.074;5.842;2022-08-19T01:02:11;21.49;73.07
66035;HTU21D;52805;51.074;5.842;2022-08-19T01:04:38;21.46;73.13
66035;HTU21D;52805;51.074;5.842;2022-08-19T01:07:04;21.40;73.41
66035;HTU21D;52805;51.074;5.842;2022-08-19T01:09:30;21.38;73.67
66035;HTU21D;52805;51.074;5.842;2022-08-19T01:11:57;21.36;73.74
66035;HTU21D;52805;51.074;5.842;2022-08-19T01:14:23;21.33;73.64
66035;HTU21D;52805;51.074;5.842;2022-08-19T01:16:50;21.31;73.73
66035;HTU21D;52805;51.074;5.842;2022-08-19T01:19:37;21.29;73.77
66035;HTU21D;52805;51.074;5.842;2022-08-19T01:24:53;21.22;74.15
66035;HTU21D;52805;51.074;5.842;2022-08-19T01:27:19;21.21;74.33
66035;HTU21D;52805;51.074;5.842;2022-08-19T01:29:45;21.19;74.42
66035;HTU21D;52805;51.074;5.842;2022-08-19T01:32:14;21.16;74.46
66035;HTU21D;52805;51.074;5.842;2022-08-19T01:34:41;21.14;74.39
66035;HTU21D;52805;51.074;5.842;2022-08-19T01:37:10;21.09;74.35
66035;HTU21D;52805;51.074;5.842;2022-08-19T01:39:39;21.08;74.34
66035;HTU21D;52805;51.074;5.842;2022-08-19T01:42:06;21.06;74.45
66035;HTU21D;52805;51.074;5.842;2022-08-19T01:44:34;21.04;74.37
66035;HTU21D;52805;51.074;5.842;2022-08-19T01:47:01;21.04;74.33
66035;HTU21D;52805;51.074;5.842;2022-08-19T01:49:28;21.04;74.40
66035;HTU21D;52805;51.074;5.842;2022-08-19T01:51:54;21.00;74.76
66035;HTU21D;52805;51.074;5.842;2022-08-19T01:54:22;21.02;75.07
66035;HTU21D;52805;51.074;5.842;2022-08-19T01:56:55;21.01;75.26
66035;HTU21D;52805;51.074;5.842;2022-08-19T01:59:24;20.99;75.42
66035;HTU21D;52805;51.074;5.842;2022-08-19T02:01:49;20.99;75.41
66035;HTU21D;52805;51.074;5.842;2022-08-19T02:04:15;20.95;75.41
66035;HTU21D;52805;51.074;5.842;2022-08-19T02:06:41;20.92;75.40
66035;HTU21D;52805;51.074;5.842;2022-08-19T02:09:07;20.89;75.41
66035;HTU21D;52805;51.074;5.842;2022-08-19T02:11:35;20.86;75.49
66035;HTU21D;52805;51.074;5.842;2022-08-19T02:14:04;20.83;75.59
66035;HTU21D;52805;51.074;5.842;2022-08-19T02:16:31;20.78;75.72
66035;HTU21D;52805;51.074;5.842;2022-08-19T02:18:58;20.78;75.79
66035;HTU21D;52805;51.074;5.842;2022-08-19T02:21:28;20.77;75.82
66035;HTU21D;52805;51.074;5.842;2022-08-19T02:23:55;20.78;75.90
66035;HTU21D;52805;51.074;5.842;2022-08-19T02:26:22;20.78;76.02
66035;HTU21D;52805;51.074;5.842;2022-08-19T02:28:48;20.81;75.92
66035;HTU21D;52805;51.074;5.842;2022-08-19T02:31:19;20.80;75.92
66035;HTU21D;52805;51.074;5.842;2022-08-19T02:33:47;20.80;76.02
66035;HTU21D;52805;51.074;5.842;2022-08-19T02:36:15;20.78;76.14
66035;HTU21D;52805;51.074;5.842;2022-08-19T02:38:43;20.75;76.38
66035;HTU21D;52805;51.074;5.842;2022-08-19T02:41:17;20.73;76.42
66035;HTU21D;52805;51.074;5.842;2022-08-19T02:43:43;20.71;76.67
66035;HTU21D;52805;51.074;5.842;2022-08-19T02:46:35;20.68;76.82
66035;HTU21D;52805;51.074;5.842;2022-08-19T02:49:05;20.64;76.92
66035;HTU21D;52805;51.074;5.842;2022-08-19T02:51:38;20.63;77.02
66035;HTU21D;52805;51.074;5.842;2022-08-19T02:54:06;20.62;77.11
66035;HTU21D;52805;51.074;5.842;2022-08-19T02:56:36;20.61;77.09
66035;HTU21D;52805;51.074;5.842;2022-08-19T02:59:02;20.63;77.11
66035;HTU21D;52805;51.074;5.842;2022-08-19T03:01:34;20.62;77.16
66035;HTU21D;52805;51.074;5.842;2022-08-19T03:04:03;20.61;77.18
66035;HTU21D;52805;51.074;5.842;2022-08-19T03:06:30;20.61;77.24
66035;HTU21D;52805;51.074;5.842;2022-08-19T03:08:57;20.60;77.26
66035;HTU21D;52805;51.074;5.842;2022-08-19T03:11:27;20.59;77.25
66035;HTU21D;52805;51.074;5.842;2022-08-19T03:13:53;20.58;77.35
66035;HTU21D;52805;51.074;5.842;2022-08-19T03:16:22;20.58;77.43
66035;HTU21D;52805;51.074;5.842;2022-08-19T03:18:49;20.55;77.53
66035;HTU21D;52805;51.074;5.842;2022-08-19T03:21:20;20.54;77.65
66035;HTU21D;52805;51.074;5.842;2022-08-19T03:23:46;20.54;77.68
66035;HTU21D;52805;51.074;5.842;2022-08-19T03:26:12;20.53;77.67
66035;HTU21D;52805;51.074;5.842;2022-08-19T03:28:41;20.53;77.68
66035;HTU21D;52805;51.074;5.842;2022-08-19T03:31:10;20.49;77.76
66035;HTU21D;52805;51.074;5.842;2022-08-19T03:33:38;20.48;77.85
66035;HTU21D;52805;51.074;5.842;2022-08-19T03:36:11;20.46;77.93
66035;HTU21D;52805;51.074;5.842;2022-08-19T03:38:39;20.46;77.89
66035;HTU21D;52805;51.074;5.842;2022-08-19T03:41:09;20.43;77.83
66035;HTU21D;52805;51.074;5.842;2022-08-19T03:43:40;20.44;77.72
66035;HTU21D;52805;51.074;5.842;2022-08-19T03:46:12;20.41;77.79
66035;HTU21D;52805;51.074;5.842;2022-08-19T03:48:40;20.40;77.76
66035;HTU21D;52805;51.074;5.842;2022-08-19T03:51:07;20.39;77.67
66035;HTU21D;52805;51.074;5.842;2022-08-19T03:53:34;20.36;77.70
66035;HTU21D;52805;51.074;5.842;2022-08-19T03:56:01;20.35;77.70
66035;HTU21D;52805;51.074;5.842;2022-08-19T03:58:29;20.33;77.70
66035;HTU21D;52805;51.074;5.842;2022-08-19T04:00:57;20.30;77.72
66035;HTU21D;52805;51.074;5.842;2022-08-19T04:03:24;20.29;77.66
66035;HTU21D;52805;51.074;5.842;2022-08-19T04:05:51;20.27;77.66
66035;HTU21D;52805;51.074;5.842;2022-08-19T04:08:18;20.27;77.63
66035;HTU21D;52805;51.074;5.842;2022-08-19T04:10:46;20.27;77.62
66035;HTU21D;52805;51.074;5.842;2022-08-19T04:13:14;20.25;77.71
66035;HTU21D;52805;51.074;5.842;2022-08-19T04:15:41;20.25;77.84
66035;HTU21D;52805;51.074;5.842;2022-08-19T04:18:08;20.22;77.97
66035;HTU21D;52805;51.074;5.842;2022-08-19T04:20:45;20.21;78.02
66035;HTU21D;52805;51.074;5.842;2022-08-19T04:23:13;20.20;78.15
66035;HTU21D;52805;51.074;5.842;2022-08-19T04:25:41;20.21;78.17
66035;HTU21D;52805;51.074;5.842;2022-08-19T04:28:09;20.26;78.11
66035;HTU21D;52805;51.074;5.842;2022-08-19T04:30:53;20.28;78.08
66035;HTU21D;52805;51.074;5.842;2022-08-19T04:33:24;20.31;78.06
66035;HTU21D;52805;51.074;5.842;2022-08-19T04:35:52;20.34;77.87
66035;HTU21D;52805;51.074;5.842;2022-08-19T04:38:20;20.36;77.75
66035;HTU21D;52805;51.074;5.842;2022-08-19T04:40:50;20.34;77.65
66035;HTU21D;52805;51.074;5.842;2022-08-19T04:43:37;20.32;77.67
66035;HTU21D;52805;51.074;5.842;2022-08-19T04:46:08;20.30;77.81
66035;HTU21D;52805;51.074;5.842;2022-08-19T04:48:35;20.30;77.83
66035;HTU21D;52805;51.074;5.842;2022-08-19T04:51:06;20.30;77.76
66035;HTU21D;52805;51.074;5.842;2022-08-19T04:53:34;20.31;77.72
66035;HTU21D;52805;51.074;5.842;2022-08-19T04:56:06;20.27;77.87
66035;HTU21D;52805;51.074;5.842;2022-08-19T04:58:33;20.25;78.00
66035;HTU21D;52805;51.074;5.842;2022-08-19T05:00:59;20.22;78.13
66035;HTU21D;52805;51.074;5.842;2022-08-19T05:03:28;20.24;78.11
66035;HTU21D;52805;51.074;5.842;2022-08-19T05:05:57;20.22;77.99
66035;HTU21D;52805;51.074;5.842;2022-08-19T05:08:23;20.25;78.01
66035;HTU21D;52805;51.074;5.842;2022-08-19T05:10:51;20.24;78.01
66035;HTU21D;52805;51.074;5.842;2022-08-19T05:13:18;20.25;77.92
66035;HTU21D;52805;51.074;5.842;2022-08-19T05:15:52;20.26;78.02
66035;HTU21D;52805;51.074;5.842;2022-08-19T05:18:18;20.25;78.18
66035;HTU21D;52805;51.074;5.842;2022-08-19T05:21:10;20.24;78.45
66035;HTU21D;52805;51.074;5.842;2022-08-19T05:23:54;20.26;78.50
66035;HTU21D;52805;51.074;5.842;2022-08-19T05:26:20;20.27;78.60
66035;HTU21D;52805;51.074;5.842;2022-08-19T05:28:45;20.28;78.61
66035;HTU21D;52805;51.074;5.842;2022-08-19T05:31:11;20.28;78.60
66035;HTU21D;52805;51.074;5.842;2022-08-19T05:33:38;20.29;78.62
66035;HTU21D;52805;51.074;5.842;2022-08-19T05:36:05;20.28;78.62
66035;HTU21D;52805;51.074;5.842;2022-08-19T05:38:34;20.30;78.59
66035;HTU21D;52805;51.074;5.842;2022-08-19T05:41:11;20.29;78.58
66035;HTU21D;52805;51.074;5.842;2022-08-19T05:43:37;20.29;78.53
66035;HTU21D;52805;51.074;5.842;2022-08-19T05:46:07;20.27;78.59
66035;HTU21D;52805;51.074;5.842;2022-08-19T05:48:34;20.30;78.54
66035;HTU21D;52805;51.074;5.842;2022-08-19T05:51:07;20.32;78.54
66035;HTU21D;52805;51.074;5.842;2022-08-19T05:53:34;20.32;78.53
66035;HTU21D;52805;51.074;5.842;2022-08-19T05:56:13;20.34;78.50
66035;HTU21D;52805;51.074;5.842;2022-08-19T05:58:41;20.36;78.46
66035;HTU21D;52805;51.074;5.842;2022-08-19T06:01:13;20.35;78.56
66035;HTU21D;52805;51.074;5.842;2022-08-19T06:03:40;20.39;78.47
66035;HTU21D;52805;51.074;5.842;2022-08-19T06:06:08;20.39;78.37
66035;HTU21D;52805;51.074;5.842;2022-08-19T06:08:35;20.37;78.36
66035;HTU21D;52805;51.074;5.842;2022-08-19T06:13:48;20.36;78.41
66035;HTU21D;52805;51.074;5.842;2022-08-19T06:16:17;20.40;78.34
66035;HTU21D;52805;51.074;5.842;2022-08-19T06:18:52;20.40;78.44
66035;HTU21D;52805;51.074;5.842;2022-08-19T06:21:20;20.41;78.45
66035;HTU21D;52805;51.074;5.842;2022-08-19T06:23:47;20.43;78.43
66035;HTU21D;52805;51.074;5.842;2022-08-19T06:26:14;20.47;78.33
66035;HTU21D;52805;51.074;5.842;2022-08-19T06:28:41;20.54;78.17
66035;HTU21D;52805;51.074;5.842;2022-08-19T06:31:10;20.57;77.95
66035;HTU21D;52805;51.074;5.842;2022-08-19T06:33:38;20.61;77.65
66035;HTU21D;52805;51.074;5.842;2022-08-19T06:36:05;20.60;77.40
66035;HTU21D;52805;51.074;5.842;2022-08-19T06:38:31;20.60;77.26
66035;HTU21D;52805;51.074;5.842;2022-08-19T06:41:05;20.64;76.98
66035;HTU21D;52805;51.074;5.842;2022-08-19T06:43:30;20.63;77.18
66035;HTU21D;52805;51.074;5.842;2022-08-19T06:45:56;20.69;76.98
66035;HTU21D;52805;51.074;5.842;2022-08-19T06:48:22;20.73;76.83
66035;HTU21D;52805;51.074;5.842;2022-08-19T06:50:48;20.74;76.75
66035;HTU21D;52805;51.074;5.842;2022-08-19T06:53:15;20.77;76.65
66035;HTU21D;52805;51.074;5.842;2022-08-19T06:55:41;20.83;76.71
66035;HTU21D;52805;51.074;5.842;2022-08-19T06:58:06;20.93;76.55
66035;HTU21D;52805;51.074;5.842;2022-08-19T07:00:32;21.05;76.07
66035;HTU21D;52805;51.074;5.842;2022-08-19T07:02:59;21.05;75.77
66035;HTU21D;52805;51.074;5.842;2022-08-19T07:05:25;21.09;75.76
66035;HTU21D;52805;51.074;5.842;2022-08-19T07:07:51;21.15;75.43
66035;HTU21D;52805;51.074;5.842;2022-08-19T07:10:17;21.09;75.43
66035;HTU21D;52805;51.074;5.842;2022-08-19T07:12:43;21.04;75.62
66035;HTU21D;52805;51.074;5.842;2022-08-19T07:15:10;21.05;75.66
66035;HTU21D;52805;51.074;5.842;2022-08-19T07:17:37;21.04;75.83
66035;HTU21D;52805;51.074;5.842;2022-08-19T07:20:05;21.06;75.76
66035;HTU21D;52805;51.074;5.842;2022-08-19T07:22:36;21.08;75.70
66035;HTU21D;52805;51.074;5.842;2022-08-19T07:25:05;21.14;75.65
66035;HTU21D;52805;51.074;5.842;2022-08-19T07:27:32;21.17;75.35
66035;HTU21D;52805;51.074;5.842;2022-08-19T07:29:57;21.14;75.21
66035;HTU21D;52805;51.074;5.842;2022-08-19T07:32:24;21.13;75.18
66035;HTU21D;52805;51.074;5.842;2022-08-19T07:34:54;21.14;74.91
66035;HTU21D;52805;51.074;5.842;2022-08-19T07:37:19;21.14;75.11
66035;HTU21D;52805;51.074;5.842;2022-08-19T07:39:45;21.22;74.85
66035;HTU21D;52805;51.074;5.842;2022-08-19T07:42:11;21.21;74.86
66035;HTU21D;52805;51.074;5.842;2022-08-19T07:44:37;21.30;74.57
66035;HTU21D;52805;51.074;5.842;2022-08-19T07:47:04;21.32;74.29
66035;HTU21D;52805;51.074;5.842;2022-08-19T07:49:30;21.32;74.24
66035;HTU21D;52805;51.074;5.842;2022-08-19T07:52:01;21.36;74.12
66035;HTU21D;52805;51.074;5.842;2022-08-19T07:54:31;21.43;74.05
66035;HTU21D;52805;51.074;5.842;2022-08-19T07:56:57;21.43;74.12
66035;HTU21D;52805;51.074;5.842;2022-08-19T07:59:24;21.47;74.36
66035;HTU21D;52805;51.074;5.842;2022-08-19T08:01:50;21.62;74.18
66035;HTU21D;52805;51.074;5.842;2022-08-19T08:04:18;21.65;73.94
66035;HTU21D;52805;51.074;5.842;2022-08-19T08:07:03;21.74;73.61
66035;HTU21D;52805;51.074;5.842;2022-08-19T08:09:48;21.83;73.39
66035;HTU21D;52805;51.074;5.842;2022-08-19T08:12:21;21.94;72.80
66035;HTU21D;52805;51.074;5.842;2022-08-19T08:14:52;21.96;72.31
66035;HTU21D;52805;51.074;5.842;2022-08-19T08:17:22;21.98;72.42
66035;HTU21D;52805;51.074;5.842;2022-08-19T08:19:49;22.10;72.01
66035;HTU21D;52805;51.074;5.842;2022-08-19T08:22:19;22.18;71.87
66035;HTU21D;52805;51.074;5.842;2022-08-19T08:25:08;22.24;71.64
66035;HTU21D;52805;51.074;5.842;2022-08-19T08:27:39;22.33;71.47
66035;HTU21D;52805;51.074;5.842;2022-08-19T08:30:11;22.42;71.50
66035;HTU21D;52805;51.074;5.842;2022-08-19T08:32:38;22.55;71.06
66035;HTU21D;52805;51.074;5.842;2022-08-19T08:35:06;22.63;70.62
66035;HTU21D;52805;51.074;5.842;2022-08-19T08:37:32;22.73;69.77
66035;HTU21D;52805;51.074;5.842;2022-08-19T08:39:58;22.75;69.50
66035;HTU21D;52805;51.074;5.842;2022-08-19T08:42:32;22.76;69.58
66035;HTU21D;52805;51.074;5.842;2022-08-19T08:45:08;22.82;69.56
66035;HTU21D;52805;51.074;5.842;2022-08-19T08:47:43;22.94;68.95
66035;HTU21D;52805;51.074;5.842;2022-08-19T08:52:56;23.06;68.62
66035;HTU21D;52805;51.074;5.842;2022-08-19T08:55:27;23.18;68.10
66035;HTU21D;52805;51.074;5.842;2022-08-19T08:58:06;23.35;67.72
66035;HTU21D;52805;51.074;5.842;2022-08-19T09:00:39;23.54;66.93
66035;HTU21D;52805;51.074;5.842;2022-08-19T09:03:18;23.70;65.83
66035;HTU21D;52805;51.074;5.842;2022-08-19T09:05:57;23.81;65.40
66035;HTU21D;52805;51.074;5.842;2022-08-19T09:10:55;23.92;64.80
66035;HTU21D;52805;51.074;5.842;2022-08-19T09:16:11;24.01;64.37
66035;HTU21D;52805;51.074;5.842;2022-08-19T09:21:09;24.09;64.49
66035;HTU21D;52805;51.074;5.842;2022-08-19T09:23:36;24.16;64.06
66035;HTU21D;52805;51.074;5.842;2022-08-19T09:26:11;24.28;63.92
66035;HTU21D;52805;51.074;5.842;2022-08-19T09:28:40;24.40;63.56
66035;HTU21D;52805;51.074;5.842;2022-08-19T09:31:14;24.51;63.20
66035;HTU21D;52805;51.074;5.842;2022-08-19T09:33:40;24.59;63.08
66035;HTU21D;52805;51.074;5.842;2022-08-19T09:36:12;24.68;62.84
66035;HTU21D;52805;51.074;5.842;2022-08-19T09:38:39;24.71;62.69
66035;HTU21D;52805;51.074;5.842;2022-08-19T09:41:13;24.70;62.70
66035;HTU21D;52805;51.074;5.842;2022-08-19T09:43:40;24.76;62.74
66035;HTU21D;52805;51.074;5.842;2022-08-19T09:46:08;24.76;62.32
66035;HTU21D;52805;51.074;5.842;2022-08-19T09:48:36;24.64;62.14
66035;HTU21D;52805;51.074;5.842;2022-08-19T09:51:05;24.62;61.66
66035;HTU21D;52805;51.074;5.842;2022-08-19T09:53:32;24.56;61.03
66035;HTU21D;52805;51.074;5.842;2022-08-19T09:55:57;24.48;61.20
66035;HTU21D;52805;51.074;5.842;2022-08-19T09:58:23;24.50;61.12
66035;HTU21D;52805;51.074;5.842;2022-08-19T10:00:58;24.49;61.39
66035;HTU21D;52805;51.074;5.842;2022-08-19T10:03:25;24.54;60.54
66035;HTU21D;52805;51.074;5.842;2022-08-19T10:05:51;24.57;59.99
66035;HTU21D;52805;51.074;5.842;2022-08-19T10:08:21;24.57;59.97
66035;HTU21D;52805;51.074;5.842;2022-08-19T10:10:48;24.63;59.90
66035;HTU21D;52805;51.074;5.842;2022-08-19T10:13:17;24.63;60.10
66035;HTU21D;52805;51.074;5.842;2022-08-19T10:15:44;24.74;59.22
66035;HTU21D;52805;51.074;5.842;2022-08-19T10:18:10;24.75;59.23
66035;HTU21D;52805;51.074;5.842;2022-08-19T10:20:36;24.85;58.97
66035;HTU21D;52805;51.074;5.842;2022-08-19T10:23:03;24.85;59.38
66035;HTU21D;52805;51.074;5.842;2022-08-19T10:25:29;24.97;59.16
66035;HTU21D;52805;51.074;5.842;2022-08-19T10:27:54;25.03;59.16
66035;HTU21D;52805;51.074;5.842;2022-08-19T10:30:20;25.17;58.80
66035;HTU21D;52805;51.074;5.842;2022-08-19T10:32:46;25.23;58.64
66035;HTU21D;52805;51.074;5.842;2022-08-19T10:35:13;25.24;58.01
66035;HTU21D;52805;51.074;5.842;2022-08-19T10:37:39;25.27;57.89
66035;HTU21D;52805;51.074;5.842;2022-08-19T10:40:07;25.28;57.87
66035;HTU21D;52805;51.074;5.842;2022-08-19T10:42:35;25.32;57.61
66035;HTU21D;52805;51.074;5.842;2022-08-19T10:45:02;25.39;58.00
66035;HTU21D;52805;51.074;5.842;2022-08-19T10:47:27;25.48;57.93
66035;HTU21D;52805;51.074;5.842;2022-08-19T10:49:54;25.60;57.21
66035;HTU21D;52805;51.074;5.842;2022-08-19T10:52:41;25.65;56.90
66035;HTU21D;52805;51.074;5.842;2022-08-19T10:55:08;25.64;56.84
66035;HTU21D;52805;51.074;5.842;2022-08-19T10:57:52;25.74;56.48
66035;HTU21D;52805;51.074;5.842;2022-08-19T11:00:19;25.77;55.99
66035;HTU21D;52805;51.074;5.842;2022-08-19T11:02:45;25.77;55.89
66035;HTU21D;52805;51.074;5.842;2022-08-19T11:05:13;25.81;55.70
66035;HTU21D;52805;51.074;5.842;2022-08-19T11:07:40;25.95;54.61
66035;HTU21D;52805;51.074;5.842;2022-08-19T11:10:06;25.98;53.37
66035;HTU21D;52805;51.074;5.842;2022-08-19T11:12:33;26.01;53.55
66035;HTU21D;52805;51.074;5.842;2022-08-19T11:14:59;26.03;53.32
66035;HTU21D;52805;51.074;5.842;2022-08-19T11:17:25;26.01;53.31
66035;HTU21D;52805;51.074;5.842;2022-08-19T11:19:50;26.01;53.64
66035;HTU21D;52805;51.074;5.842;2022-08-19T11:22:16;26.07;53.41
66035;HTU21D;52805;51.074;5.842;2022-08-19T11:24:42;26.08;53.48
66035;HTU21D;52805;51.074;5.842;2022-08-19T11:27:09;26.21;52.88
66035;HTU21D;52805;51.074;5.842;2022-08-19T11:29:38;26.24;51.92
66035;HTU21D;52805;51.074;5.842;2022-08-19T11:32:09;26.28;51.74
66035;HTU21D;52805;51.074;5.842;2022-08-19T11:34:36;26.37;51.11
66035;HTU21D;52805;51.074;5.842;2022-08-19T11:37:03;26.54;49.79
66035;HTU21D;52805;51.074;5.842;2022-08-19T11:39:31;26.55;50.30
66035;HTU21D;52805;51.074;5.842;2022-08-19T11:41:58;26.62;50.07
66035;HTU21D;52805;51.074;5.842;2022-08-19T11:44:25;26.75;49.87
66035;HTU21D;52805;51.074;5.842;2022-08-19T11:46:51;26.91;49.56
66035;HTU21D;52805;51.074;5.842;2022-08-19T11:49:19;27.00;49.31
66035;HTU21D;52805;51.074;5.842;2022-08-19T11:51:46;27.10;49.09
66035;HTU21D;52805;51.074;5.842;2022-08-19T11:54:14;27.20;48.99
66035;HTU21D;52805;51.074;5.842;2022-08-19T11:56:42;27.29;48.67
66035;HTU21D;52805;51.074;5.842;2022-08-19T11:59:08;27.38;48.24
66035;HTU21D;52805;51.074;5.842;2022-08-19T12:01:35;27.43;48.21
66035;HTU21D;52805;51.074;5.842;2022-08-19T12:04:01;27.51;48.23
66035;HTU21D;52805;51.074;5.842;2022-08-19T12:06:32;27.65;47.90
66035;HTU21D;52805;51.074;5.842;2022-08-19T12:09:03;27.69;48.21
66035;HTU21D;52805;51.074;5.842;2022-08-19T12:11:30;27.69;48.28
66035;HTU21D;52805;51.074;5.842;2022-08-19T12:13:56;27.75;48.53
66035;HTU21D;52805;51.074;5.842;2022-08-19T12:16:25;27.85;48.48
66035;HTU21D;52805;51.074;5.842;2022-08-19T12:18:53;27.97;48.18
66035;HTU21D;52805;51.074;5.842;2022-08-19T12:21:22;28.00;47.97
66035;HTU21D;52805;51.074;5.842;2022-08-19T12:23:50;27.99;47.69
66035;HTU21D;52805;51.074;5.842;2022-08-19T12:26:17;27.96;47.55
66035;HTU21D;52805;51.074;5.842;2022-08-19T12:28:43;27.94;47.05
66035;HTU21D;52805;51.074;5.842;2022-08-19T12:31:10;28.10;47.82
66035;HTU21D;52805;51.074;5.842;2022-08-19T12:33:40;28.20;47.54
66035;HTU21D;52805;51.074;5.842;2022-08-19T12:36:10;28.42;47.37
66035;HTU21D;52805;51.074;5.842;2022-08-19T12:38:38;28.67;47.11
66035;HTU21D;52805;51.074;5.842;2022-08-19T12:41:06;28.84;46.62
66035;HTU21D;52805;51.074;5.842;2022-08-19T12:43:33;28.92;46.26
66035;HTU21D;52805;51.074;5.842;2022-08-19T12:46:00;28.93;46.57
66035;HTU21D;52805;51.074;5.842;2022-08-19T12:48:26;29.09;46.54
66035;HTU21D;52805;51.074;5.842;2022-08-19T12:50:52;29.11;46.38
66035;HTU21D;52805;51.074;5.842;2022-08-19T12:53:19;29.03;46.62
66035;HTU21D;52805;51.074;5.842;2022-08-19T12:55:45;29.06;46.91
66035;HTU21D;52805;51.074;5.842;2022-08-19T12:58:10;29.07;45.72
66035;HTU21D;52805;51.074;5.842;2022-08-19T13:00:38;28.93;46.70
66035;HTU21D;52805;51.074;5.842;2022-08-19T13:03:04;28.85;46.91
66035;HTU21D;52805;51.074;5.842;2022-08-19T13:05:32;28.89;46.85
66035;HTU21D;52805;51.074;5.842;2022-08-19T13:07:59;28.95;47.27
66035;HTU21D;52805;51.074;5.842;2022-08-19T13:10:29;29.09;47.51
66035;HTU21D;52805;51.074;5.842;2022-08-19T13:12:55;29.18;47.25
66035;HTU21D;52805;51.074;5.842;2022-08-19T13:15:22;29.26;47.23
66035;HTU21D;52805;51.074;5.842;2022-08-19T13:17:50;29.41;47.20
66035;HTU21D;52805;51.074;5.842;2022-08-19T13:20:18;29.52;46.93
66035;HTU21D;52805;51.074;5.842;2022-08-19T13:22:46;29.57;46.75
66035;HTU21D;52805;51.074;5.842;2022-08-19T13:25:14;29.50;46.86
66035;HTU21D;52805;51.074;5.842;2022-08-19T13:27:43;29.28;47.60
66035;HTU21D;52805;51.074;5.842;2022-08-19T13:30:12;29.20;47.86
66035;HTU21D;52805;51.074;5.842;2022-08-19T13:32:58;29.26;47.75
66035;HTU21D;52805;51.074;5.842;2022-08-19T13:35:57;29.17;47.63
66035;HTU21D;52805;51.074;5.842;2022-08-19T13:38:24;29.06;47.89
66035;HTU21D;52805;51.074;5.842;2022-08-19T13:40:52;28.97;48.34
66035;HTU21D;52805;51.074;5.842;2022-08-19T13:43:20;28.90;48.70
66035;HTU21D;52805;51.074;5.842;2022-08-19T13:45:52;28.90;48.53
66035;HTU21D;52805;51.074;5.842;2022-08-19T13:48:21;29.03;48.38
66035;HTU21D;52805;51.074;5.842;2022-08-19T13:50:46;29.03;48.25
66035;HTU21D;52805;51.074;5.842;2022-08-19T13:53:14;29.02;48.27
66035;HTU21D;52805;51.074;5.842;2022-08-19T13:55:42;28.92;48.36
66035;HTU21D;52805;51.074;5.842;2022-08-19T13:58:09;28.88;48.65
66035;HTU21D;52805;51.074;5.842;2022-08-19T14:00:40;28.88;48.76
66035;HTU21D;52805;51.074;5.842;2022-08-19T14:03:06;28.90;48.73
66035;HTU21D;52805;51.074;5.842;2022-08-19T14:05:32;28.84;48.89
66035;HTU21D;52805;51.074;5.842;2022-08-19T14:07:58;28.83;49.15
66035;HTU21D;52805;51.074;5.842;2022-08-19T14:10:27;28.87;49.39
66035;HTU21D;52805;51.074;5.842;2022-08-19T14:12:58;28.97;49.65
66035;HTU21D;52805;51.074;5.842;2022-08-19T14:15:26;29.02;49.62
66035;HTU21D;52805;51.074;5.842;2022-08-19T14:17:51;29.09;49.60
66035;HTU21D;52805;51.074;5.842;2022-08-19T14:20:18;29.13;49.52
66035;HTU21D;52805;51.074;5.842;2022-08-19T14:22:46;29.08;49.76
66035;HTU21D;52805;51.074;5.842;2022-08-19T14:25:16;29.26;49.37
66035;HTU21D;52805;51.074;5.842;2022-08-19T14:27:42;29.21;49.40
66035;HTU21D;52805;51.074;5.842;2022-08-19T14:30:11;29.06;49.53
66035;HTU21D;52805;51.074;5.842;2022-08-19T14:32:38;29.01;49.76
66035;HTU21D;52805;51.074;5.842;2022-08-19T14:35:06;28.90;50.22
66035;HTU21D;52805;51.074;5.842;2022-08-19T14:37:34;28.83;50.45
66035;HTU21D;52805;51.074;5.842;2022-08-19T14:40:01;28.79;50.77
66035;HTU21D;52805;51.074;5.842;2022-08-19T14:42:27;28.75;50.77
66035;HTU21D;52805;51.074;5.842;2022-08-19T14:44:52;28.73;50.87
66035;HTU21D;52805;51.074;5.842;2022-08-19T14:47:19;28.65;50.82
66035;HTU21D;52805;51.074;5.842;2022-08-19T14:49:44;28.60;50.92
66035;HTU21D;52805;51.074;5.842;2022-08-19T14:52:10;28.59;51.08
66035;HTU21D;52805;51.074;5.842;2022-08-19T14:54:35;28.55;51.30
66035;HTU21D;52805;51.074;5.842;2022-08-19T14:57:01;28.56;51.19
66035;HTU21D;52805;51.074;5.842;2022-08-19T14:59:28;28.52;51.36
66035;HTU21D;52805;51.074;5.842;2022-08-19T15:01:53;28.48;51.37
66035;HTU21D;52805;51.074;5.842;2022-08-19T15:04:19;28.46;51.54
66035;HTU21D;52805;51.074;5.842;2022-08-19T15:06:44;28.55;51.85
66035;HTU21D;52805;51.074;5.842;2022-08-19T15:09:11;28.69;51.61
66035;HTU21D;52805;51.074;5.842;2022-08-19T15:11:37;28.79;51.48
66035;HTU21D;52805;51.074;5.842;2022-08-19T15:14:04;28.89;51.32
66035;HTU21D;52805;51.074;5.842;2022-08-19T15:16:31;28.95;51.21
66035;HTU21D;52805;51.074;5.842;2022-08-19T15:18:58;29.05;50.75
66035;HTU21D;52805;51.074;5.842;2022-08-19T15:21:27;29.01;50.69
66035;HTU21D;52805;51.074;5.842;2022-08-19T15:23:55;28.95;50.65
66035;HTU21D;52805;51.074;5.842;2022-08-19T15:26:21;28.95;50.45
66035;HTU21D;52805;51.074;5.842;2022-08-19T15:28:47;28.89;50.42
66035;HTU21D;52805;51.074;5.842;2022-08-19T15:31:17;28.83;50.21
66035;HTU21D;52805;51.074;5.842;2022-08-19T15:33:43;28.73;50.53
66035;HTU21D;52805;51.074;5.842;2022-08-19T15:36:09;28.67;50.48
66035;HTU21D;52805;51.074;5.842;2022-08-19T15:38:38;28.60;50.53